Mans del Atlantico, Puerto Rico
Current Conditions -  °F | °C
As of 12:50 PM on Friday 28 Nov 2014 (Local Time) from TJBQ Reporting Station
Scattered Clouds Scattered Clouds  
Wind Chill: 84°   Ceiling: Unl
Heat Index: 88°   Visibility: 10mi
Dew Point: 70°   Wind: 12mph
Humidity: 62%   Direction: 60°ENE
Pressure: 29.95"   Gusts: NA
Location:  18.4951°N, 67.0273°W
Report Text: TJBQ 281650Z 06010KT 10SM SCT030 29/21 A2995 RMK RWY 08- ATIS V
Loading
Personal Weather Stations






























Interactive Weather Map New forecast layout! Learn more

10-Day Weather Forecast

Advertisements
Track Severe Weather on mobile